Atwood, Oklahoma
Current Conditions -  °F | °C
As of 7:55 AM on Thursday 23 Oct 2014 (Local Time) from KADH Reporting Station
Overcast Overcast  
Wind Chill: 15°   Ceiling: 6000
Heat Index: 15°   Visibility: 10mi
Dew Point: 13°   Wind: 8mph
Humidity: 88%   Direction: 170°S
Pressure: 30.15"   Gusts: NA
Location:  34.96°N, 96.34°W
Report Text: KADH 231255Z AUTO 17007KT 10SM SCT050 OVC060 15/13 A3015 RMK AO2
Loading
Personal Weather Stations






























Interactive Weather Map
Tropical Storm Tracking
New forecast layout! Learn more

10-Day Weather Forecast

Advertisements
Track Severe Weather on mobile